sensor_id;sensor_type;location;lat;lon;timestamp;pressure;altitude;pressure_sealevel;temperature;humidity
12195;BME280;27023;42.680;23.132;2022-08-18T00:01:49;92070.19;;;19.87;89.18
12195;BME280;27023;42.680;23.132;2022-08-18T00:04:16;92079.69;;;19.92;87.98
12195;BME280;27023;42.680;23.132;2022-08-18T00:06:43;92071.97;;;19.97;87.15
12195;BME280;27023;42.680;23.132;2022-08-18T00:09:10;92072.13;;;20.14;85.55
12195;BME280;27023;42.680;23.132;2022-08-18T00:11:40;92076.38;;;20.11;86.63
12195;BME280;27023;42.680;23.132;2022-08-18T00:14:10;92083.00;;;19.99;87.60
12195;BME280;27023;42.680;23.132;2022-08-18T00:16:39;92076.16;;;19.98;88.14
12195;BME280;27023;42.680;23.132;2022-08-18T00:19:05;92070.13;;;19.91;87.45
12195;BME280;27023;42.680;23.132;2022-08-18T00:21:33;92073.47;;;19.98;87.34
12195;BME280;27023;42.680;23.132;2022-08-18T00:23:59;92071.34;;;19.86;86.42
12195;BME280;27023;42.680;23.132;2022-08-18T00:26:26;92069.47;;;19.83;87.18
12195;BME280;27023;42.680;23.132;2022-08-18T00:28:53;92072.41;;;19.92;86.98
12195;BME280;27023;42.680;23.132;2022-08-18T00:31:20;92076.34;;;19.84;86.91
12195;BME280;27023;42.680;23.132;2022-08-18T00:33:48;92071.00;;;19.84;88.13
12195;BME280;27023;42.680;23.132;2022-08-18T00:36:14;92076.59;;;19.93;85.98
12195;BME280;27023;42.680;23.132;2022-08-18T00:38:41;92086.84;;;19.98;85.51
12195;BME280;27023;42.680;23.132;2022-08-18T00:41:08;92079.19;;;20.00;84.44
12195;BME280;27023;42.680;23.132;2022-08-18T00:43:39;92086.66;;;20.13;86.47
12195;BME280;27023;42.680;23.132;2022-08-18T00:46:08;92084.28;;;19.91;86.73
12195;BME280;27023;42.680;23.132;2022-08-18T00:48:37;92083.50;;;19.91;86.29
12195;BME280;27023;42.680;23.132;2022-08-18T00:51:08;92086.84;;;19.98;88.02
12195;BME280;27023;42.680;23.132;2022-08-18T00:53:40;92082.41;;;19.88;86.50
12195;BME280;27023;42.680;23.132;2022-08-18T00:56:13;92080.34;;;19.99;87.46
12195;BME280;27023;42.680;23.132;2022-08-18T00:58:43;92084.97;;;19.95;87.87
12195;BME280;27023;42.680;23.132;2022-08-18T01:01:13;92074.91;;;20.07;87.42
12195;BME280;27023;42.680;23.132;2022-08-18T01:03:43;92075.75;;;20.27;87.10
12195;BME280;27023;42.680;23.132;2022-08-18T01:06:23;92075.59;;;20.38;86.49
12195;BME280;27023;42.680;23.132;2022-08-18T01:08:51;92072.13;;;20.14;86.98
12195;BME280;27023;42.680;23.132;2022-08-18T01:14:01;92075.81;;;20.23;87.12
12195;BME280;27023;42.680;23.132;2022-08-18T01:16:29;92079.94;;;20.01;86.85
12195;BME280;27023;42.680;23.132;2022-08-18T01:19:13;92076.94;;;19.95;86.26
12195;BME280;27023;42.680;23.132;2022-08-18T01:22:06;92075.59;;;19.84;88.22
12195;BME280;27023;42.680;23.132;2022-08-18T01:24:38;92074.84;;;19.83;88.57
12195;BME280;27023;42.680;23.132;2022-08-18T01:27:23;92072.69;;;19.71;89.77
12195;BME280;27023;42.680;23.132;2022-08-18T01:29:51;92072.81;;;19.64;90.06
12195;BME280;27023;42.680;23.132;2022-08-18T01:32:20;92080.22;;;19.49;90.30
12195;BME280;27023;42.680;23.132;2022-08-18T01:34:49;92077.53;;;19.53;87.82
12195;BME280;27023;42.680;23.132;2022-08-18T01:37:17;92080.91;;;19.57;87.09
12195;BME280;27023;42.680;23.132;2022-08-18T01:39:46;92075.13;;;19.62;87.79
12195;BME280;27023;42.680;23.132;2022-08-18T01:42:15;92077.88;;;19.55;87.43
12195;BME280;27023;42.680;23.132;2022-08-18T01:44:42;92078.94;;;19.61;86.87
12195;BME280;27023;42.680;23.132;2022-08-18T01:47:11;92072.84;;;19.60;88.78
12195;BME280;27023;42.680;23.132;2022-08-18T01:49:39;92073.97;;;19.63;88.86
12195;BME280;27023;42.680;23.132;2022-08-18T01:52:08;92069.09;;;19.54;88.00
12195;BME280;27023;42.680;23.132;2022-08-18T01:54:35;92074.44;;;19.54;90.61
12195;BME280;27023;42.680;23.132;2022-08-18T01:57:06;92072.59;;;19.48;89.67
12195;BME280;27023;42.680;23.132;2022-08-18T01:59:39;92071.84;;;19.47;89.05
12195;BME280;27023;42.680;23.132;2022-08-18T02:02:06;92074.44;;;19.54;88.83
12195;BME280;27023;42.680;23.132;2022-08-18T02:04:34;92069.09;;;19.54;89.29
12195;BME280;27023;42.680;23.132;2022-08-18T02:07:01;92073.75;;;19.47;90.79
12195;BME280;27023;42.680;23.132;2022-08-18T02:09:28;92074.56;;;19.44;90.46
12195;BME280;27023;42.680;23.132;2022-08-18T02:11:55;92073.41;;;19.45;88.89
12195;BME280;27023;42.680;23.132;2022-08-18T02:14:23;92067.69;;;19.43;89.68
12195;BME280;27023;42.680;23.132;2022-08-18T02:16:50;92076.38;;;19.50;90.72
12195;BME280;27023;42.680;23.132;2022-08-18T02:19:16;92078.34;;;19.46;90.10
12195;BME280;27023;42.680;23.132;2022-08-18T02:21:43;92079.47;;;19.49;89.98
12195;BME280;27023;42.680;23.132;2022-08-18T02:24:10;92074.44;;;19.54;90.23
12195;BME280;27023;42.680;23.132;2022-08-18T02:26:37;92069.13;;;19.51;89.95
12195;BME280;27023;42.680;23.132;2022-08-18T02:29:03;92073.31;;;19.52;89.87
12195;BME280;27023;42.680;23.132;2022-08-18T02:31:31;92063.41;;;19.49;89.59
12195;BME280;27023;42.680;23.132;2022-08-18T02:33:58;92068.84;;;19.42;91.25
12195;BME280;27023;42.680;23.132;2022-08-18T02:36:25;92075.44;;;19.33;91.74
12195;BME280;27023;42.680;23.132;2022-08-18T02:38:53;92072.78;;;19.33;89.96
12195;BME280;27023;42.680;23.132;2022-08-18T02:41:20;92073.00;;;19.46;90.09
12195;BME280;27023;42.680;23.132;2022-08-18T02:43:47;92068.53;;;19.36;90.05
12195;BME280;27023;42.680;23.132;2022-08-18T02:46:14;92076.56;;;19.36;91.79
12195;BME280;27023;42.680;23.132;2022-08-18T02:48:42;92076.50;;;19.40;90.96
12195;BME280;27023;42.680;23.132;2022-08-18T02:51:10;92078.44;;;19.39;89.85
12195;BME280;27023;42.680;23.132;2022-08-18T02:53:38;92074.28;;;19.34;89.98
12195;BME280;27023;42.680;23.132;2022-08-18T02:56:08;92073.78;;;19.43;91.01
12195;BME280;27023;42.680;23.132;2022-08-18T02:58:50;92072.00;;;19.33;88.98
12195;BME280;27023;42.680;23.132;2022-08-18T03:01:19;92069.44;;;19.22;92.88
12195;BME280;27023;42.680;23.132;2022-08-18T03:03:48;92068.31;;;19.20;91.72
12195;BME280;27023;42.680;23.132;2022-08-18T03:06:16;92076.78;;;19.15;91.99
12195;BME280;27023;42.680;23.132;2022-08-18T03:08:43;92066.84;;;19.15;92.04
12195;BME280;27023;42.680;23.132;2022-08-18T03:11:13;92071.81;;;19.13;89.61
12195;BME280;27023;42.680;23.132;2022-08-18T03:13:40;92064.97;;;19.12;91.88
12195;BME280;27023;42.680;23.132;2022-08-18T03:16:07;92076.28;;;19.23;90.86
12195;BME280;27023;42.680;23.132;2022-08-18T03:18:34;92070.94;;;19.23;92.33
12195;BME280;27023;42.680;23.132;2022-08-18T03:21:05;92072.63;;;19.10;91.38
12195;BME280;27023;42.680;23.132;2022-08-18T03:23:32;92079.09;;;19.13;91.98
12195;BME280;27023;42.680;23.132;2022-08-18T03:25:58;92080.97;;;19.16;91.79
12195;BME280;27023;42.680;23.132;2022-08-18T03:28:25;92082.56;;;19.10;92.39
12195;BME280;27023;42.680;23.132;2022-08-18T03:30:53;92081.06;;;19.05;91.62
12195;BME280;27023;42.680;23.132;2022-08-18T03:33:20;92080.69;;;19.07;92.29
12195;BME280;27023;42.680;23.132;2022-08-18T03:35:47;92079.25;;;18.98;92.89
12195;BME280;27023;42.680;23.132;2022-08-18T03:38:15;92078.47;;;18.98;92.87
12195;BME280;27023;42.680;23.132;2022-08-18T03:40:41;92079.34;;;18.88;93.91
12195;BME280;27023;42.680;23.132;2022-08-18T03:43:08;92086.63;;;18.84;93.86
12195;BME280;27023;42.680;23.132;2022-08-18T03:45:35;92085.13;;;18.83;93.89
12195;BME280;27023;42.680;23.132;2022-08-18T03:48:02;92083.53;;;18.89;92.25
12195;BME280;27023;42.680;23.132;2022-08-18T03:50:29;92086.16;;;18.92;93.65
12195;BME280;27023;42.680;23.132;2022-08-18T03:52:56;92092.69;;;18.88;92.86
12195;BME280;27023;42.680;23.132;2022-08-18T03:55:26;92087.72;;;18.90;93.62
12195;BME280;27023;42.680;23.132;2022-08-18T03:57:57;92097.25;;;18.91;94.43
12195;BME280;27023;42.680;23.132;2022-08-18T04:00:24;92093.88;;;18.83;93.75
12195;BME280;27023;42.680;23.132;2022-08-18T04:02:51;92098.75;;;18.92;94.91
12195;BME280;27023;42.680;23.132;2022-08-18T04:05:18;92101.06;;;18.90;94.53
12195;BME280;27023;42.680;23.132;2022-08-18T04:07:45;92098.00;;;18.91;95.68
12195;BME280;27023;42.680;23.132;2022-08-18T04:10:12;92101.81;;;18.90;94.78
12195;BME280;27023;42.680;23.132;2022-08-18T04:12:41;92103.38;;;18.88;95.40
12195;BME280;27023;42.680;23.132;2022-08-18T04:15:08;92105.19;;;18.98;94.11
12195;BME280;27023;42.680;23.132;2022-08-18T04:17:35;92110.88;;;19.00;96.18
12195;BME280;27023;42.680;23.132;2022-08-18T04:20:03;92108.94;;;19.04;94.89
12195;BME280;27023;42.680;23.132;2022-08-18T04:22:30;92105.41;;;19.14;95.01
12195;BME280;27023;42.680;23.132;2022-08-18T04:24:58;92110.63;;;19.25;93.04
12195;BME280;27023;42.680;23.132;2022-08-18T04:27:26;92112.84;;;19.33;93.59
12195;BME280;27023;42.680;23.132;2022-08-18T04:29:55;92117.75;;;19.39;93.54
12195;BME280;27023;42.680;23.132;2022-08-18T04:32:22;92120.81;;;19.37;94.38
12195;BME280;27023;42.680;23.132;2022-08-18T04:34:48;92118.84;;;19.45;93.24
12195;BME280;27023;42.680;23.132;2022-08-18T04:37:15;92118.44;;;19.46;95.10
12195;BME280;27023;42.680;23.132;2022-08-18T04:39:43;92115.63;;;19.60;94.06
12195;BME280;27023;42.680;23.132;2022-08-18T04:42:10;92119.41;;;19.63;92.81
12195;BME280;27023;42.680;23.132;2022-08-18T04:44:36;92127.97;;;19.81;89.57
12195;BME280;27023;42.680;23.132;2022-08-18T04:47:05;92122.16;;;19.86;91.80
12195;BME280;27023;42.680;23.132;2022-08-18T04:49:34;92129.66;;;19.98;90.39
12195;BME280;27023;42.680;23.132;2022-08-18T04:52:03;92121.69;;;20.22;88.23
12195;BME280;27023;42.680;23.132;2022-08-18T04:54:47;92123.81;;;20.34;89.03
12195;BME280;27023;42.680;23.132;2022-08-18T04:57:18;92123.88;;;20.57;85.43
12195;BME280;27023;42.680;23.132;2022-08-18T04:59:46;92122.59;;;20.66;87.97
12195;BME280;27023;42.680;23.132;2022-08-18T05:02:29;92124.81;;;20.94;80.41
12195;BME280;27023;42.680;23.132;2022-08-18T05:04:57;92125.88;;;21.00;84.87
12195;BME280;27023;42.680;23.132;2022-08-18T05:07:25;92130.28;;;21.10;82.54
12195;BME280;27023;42.680;23.132;2022-08-18T05:09:52;92133.78;;;21.31;79.51
12195;BME280;27023;42.680;23.132;2022-08-18T05:12:19;92129.44;;;21.37;79.23
12195;BME280;27023;42.680;23.132;2022-08-18T05:14:47;92143.22;;;21.15;83.53
12195;BME280;27023;42.680;23.132;2022-08-18T05:17:15;92140.44;;;21.42;78.18
12195;BME280;27023;42.680;23.132;2022-08-18T05:19:43;92145.22;;;21.74;74.42
12195;BME280;27023;42.680;23.132;2022-08-18T05:22:10;92145.28;;;21.91;73.12
12195;BME280;27023;42.680;23.132;2022-08-18T05:24:38;92143.44;;;22.07;73.91
12195;BME280;27023;42.680;23.132;2022-08-18T05:27:05;92147.41;;;22.19;73.61
12195;BME280;27023;42.680;23.132;2022-08-18T05:29:32;92146.53;;;22.06;73.00
12195;BME280;27023;42.680;23.132;2022-08-18T05:32:02;92150.97;;;22.32;71.44
12195;BME280;27023;42.680;23.132;2022-08-18T05:34:31;92148.97;;;22.52;70.40
12195;BME280;27023;42.680;23.132;2022-08-18T05:37:13;92149.13;;;22.45;71.57
12195;BME280;27023;42.680;23.132;2022-08-18T05:39:50;92153.28;;;22.66;70.29
12195;BME280;27023;42.680;23.132;2022-08-18T05:42:19;92136.56;;;22.59;70.51
12195;BME280;27023;42.680;23.132;2022-08-18T05:44:48;92145.88;;;22.54;73.09
12195;BME280;27023;42.680;23.132;2022-08-18T05:47:18;92142.28;;;22.77;70.66
12195;BME280;27023;42.680;23.132;2022-08-18T05:49:46;92143.63;;;22.85;69.54
12195;BME280;27023;42.680;23.132;2022-08-18T05:52:17;92146.06;;;22.96;68.80
12195;BME280;27023;42.680;23.132;2022-08-18T05:54:48;92148.00;;;23.11;68.76
12195;BME280;27023;42.680;23.132;2022-08-18T05:57:38;92141.88;;;23.11;70.21
12195;BME280;27023;42.680;23.132;2022-08-18T06:00:11;92147.66;;;23.26;68.79
12195;BME280;27023;42.680;23.132;2022-08-18T06:02:42;92142.59;;;23.28;68.74
12195;BME280;27023;42.680;23.132;2022-08-18T06:05:14;92152.63;;;23.11;69.45
12195;BME280;27023;42.680;23.132;2022-08-18T06:07:50;92155.38;;;23.24;68.72
12195;BME280;27023;42.680;23.132;2022-08-18T06:10:18;92148.03;;;23.40;68.06
12195;BME280;27023;42.680;23.132;2022-08-18T06:12:47;92150.34;;;23.26;69.02
12195;BME280;27023;42.680;23.132;2022-08-18T06:15:19;92151.28;;;23.48;67.20
12195;BME280;27023;42.680;23.132;2022-08-18T06:18:16;92143.78;;;23.27;68.01
12195;BME280;27023;42.680;23.132;2022-08-18T06:21:11;92155.81;;;23.51;67.08
12195;BME280;27023;42.680;23.132;2022-08-18T06:23:49;92151.16;;;23.39;67.14
12195;BME280;27023;42.680;23.132;2022-08-18T06:26:20;92153.66;;;23.46;66.50
12195;BME280;27023;42.680;23.132;2022-08-18T06:28:59;92159.59;;;23.54;66.87
12195;BME280;27023;42.680;23.132;2022-08-18T06:31:32;92158.47;;;23.38;67.76
12195;BME280;27023;42.680;23.132;2022-08-18T06:34:12;92163.22;;;23.47;67.40
12195;BME280;27023;42.680;23.132;2022-08-18T06:36:49;92161.47;;;23.40;66.43
12195;BME280;27023;42.680;23.132;2022-08-18T06:39:23;92162.56;;;23.59;66.53
12195;BME280;27023;42.680;23.132;2022-08-18T06:41:52;92159.44;;;23.61;66.53
12195;BME280;27023;42.680;23.132;2022-08-18T06:44:22;92161.66;;;23.33;69.27
12195;BME280;27023;42.680;23.132;2022-08-18T06:46:57;92160.72;;;23.40;66.97
12195;BME280;27023;42.680;23.132;2022-08-18T06:49:36;92158.38;;;23.42;66.86
12195;BME280;27023;42.680;23.132;2022-08-18T06:52:25;92153.66;;;23.46;67.74
12195;BME280;27023;42.680;23.132;2022-08-18T06:54:58;92160.34;;;23.54;66.40
12195;BME280;27023;42.680;23.132;2022-08-18T06:57:29;92157.84;;;23.63;65.79
12195;BME280;27023;42.680;23.132;2022-08-18T07:00:00;92153.88;;;23.68;65.18
12195;BME280;27023;42.680;23.132;2022-08-18T07:02:40;92162.28;;;23.70;65.95
12195;BME280;27023;42.680;23.132;2022-08-18T07:05:20;92148.34;;;23.88;64.97
12195;BME280;27023;42.680;23.132;2022-08-18T07:08:04;92157.13;;;23.75;66.76
12195;BME280;27023;42.680;23.132;2022-08-18T07:10:35;92149.31;;;23.81;67.14
12195;BME280;27023;42.680;23.132;2022-08-18T07:13:07;92151.59;;;23.95;65.33
12195;BME280;27023;42.680;23.132;2022-08-18T07:15:39;92148.78;;;23.86;65.75
12195;BME280;27023;42.680;23.132;2022-08-18T07:18:08;92125.75;;;23.85;65.80
12195;BME280;27023;42.680;23.132;2022-08-18T07:20:42;92146.13;;;23.99;65.27
12195;BME280;27023;42.680;23.132;2022-08-18T07:23:21;92148.28;;;24.04;63.99
12195;BME280;27023;42.680;23.132;2022-08-18T07:25:57;92148.28;;;24.17;63.79
12195;BME280;27023;42.680;23.132;2022-08-18T07:28:30;92145.00;;;24.38;62.61
12195;BME280;27023;42.680;23.132;2022-08-18T07:31:15;92146.41;;;24.43;64.31
12195;BME280;27023;42.680;23.132;2022-08-18T07:33:50;92137.88;;;24.31;64.84
12195;BME280;27023;42.680;23.132;2022-08-18T07:36:24;92145.44;;;24.36;63.09
12195;BME280;27023;42.680;23.132;2022-08-18T07:38:59;92146.19;;;24.50;63.04
12195;BME280;27023;42.680;23.132;2022-08-18T07:41:32;92137.69;;;24.51;61.77
12195;BME280;27023;42.680;23.132;2022-08-18T07:44:08;92132.97;;;24.55;61.44
12195;BME280;27023;42.680;23.132;2022-08-18T07:46:42;92149.66;;;24.63;61.54
12195;BME280;27023;42.680;23.132;2022-08-18T07:49:16;92147.59;;;24.80;61.99
12195;BME280;27023;42.680;23.132;2022-08-18T07:51:46;92139.28;;;24.99;59.81
12195;BME280;27023;42.680;23.132;2022-08-18T07:54:22;92143.38;;;24.91;60.97
12195;BME280;27023;42.680;23.132;2022-08-18T07:56:58;92140.03;;;25.13;58.47
12195;BME280;27023;42.680;23.132;2022-08-18T07:59:33;92141.66;;;25.10;59.93
12195;BME280;27023;42.680;23.132;2022-08-18T08:02:26;92152.94;;;25.18;58.96
12195;BME280;27023;42.680;23.132;2022-08-18T08:05:30;92151.00;;;25.18;58.03
12195;BME280;27023;42.680;23.132;2022-08-18T08:08:24;92150.78;;;25.25;57.90
12195;BME280;27023;42.680;23.132;2022-08-18T08:14:38;92141.31;;;25.55;58.19
12195;BME280;27023;42.680;23.132;2022-08-18T08:17:49;92139.66;;;25.23;61.33
12195;BME280;27023;42.680;23.132;2022-08-18T08:20:47;92146.56;;;25.37;57.44
12195;BME280;27023;42.680;23.132;2022-08-18T08:23:28;92145.38;;;25.60;56.46
12195;BME280;27023;42.680;23.132;2022-08-18T08:26:08;92143.84;;;25.72;55.69
12195;BME280;27023;42.680;23.132;2022-08-18T08:28:43;92137.19;;;25.85;54.79
12195;BME280;27023;42.680;23.132;2022-08-18T08:31:20;92138.31;;;25.97;54.76
12195;BME280;27023;42.680;23.132;2022-08-18T08:33:55;92143.06;;;26.06;53.51
12195;BME280;27023;42.680;23.132;2022-08-18T08:40:12;92149.25;;;26.15;49.31
12195;BME280;27023;42.680;23.132;2022-08-18T08:42:45;92148.06;;;26.16;47.76
12195;BME280;27023;42.680;23.132;2022-08-18T08:45:17;92149.38;;;26.34;46.00
12195;BME280;27023;42.680;23.132;2022-08-18T08:47:53;92145.84;;;26.46;45.56
12195;BME280;27023;42.680;23.132;2022-08-18T08:50:25;92141.69;;;26.63;45.69
12195;BME280;27023;42.680;23.132;2022-08-18T08:52:56;92145.25;;;26.82;46.25
12195;BME280;27023;42.680;23.132;2022-08-18T08:55:28;92144.25;;;26.98;45.58
12195;BME280;27023;42.680;23.132;2022-08-18T08:58:15;92137.31;;;26.97;45.58
12195;BME280;27023;42.680;23.132;2022-08-18T09:00:45;92139.31;;;27.05;46.81
12195;BME280;27023;42.680;23.132;2022-08-18T09:03:33;92137.56;;;26.80;47.99
12195;BME280;27023;42.680;23.132;2022-08-18T09:06:12;92138.06;;;26.97;47.71
12195;BME280;27023;42.680;23.132;2022-08-18T09:09:07;92133.16;;;27.14;47.15
12195;BME280;27023;42.680;23.132;2022-08-18T09:12:11;92132.09;;;27.02;46.10
12195;BME280;27023;42.680;23.132;2022-08-18T09:15:02;92120.38;;;27.05;43.59
12195;BME280;27023;42.680;23.132;2022-08-18T09:17:47;92121.00;;;27.18;45.46
12195;BME280;27023;42.680;23.132;2022-08-18T09:20:36;92118.38;;;27.73;44.39
12195;BME280;27023;42.680;23.132;2022-08-18T09:23:10;92117.75;;;27.69;42.20
12195;BME280;27023;42.680;23.132;2022-08-18T09:25:48;92106.44;;;27.43;43.50
12195;BME280;27023;42.680;23.132;2022-08-18T09:28:19;92111.31;;;27.67;45.24
12195;BME280;27023;42.680;23.132;2022-08-18T09:34:09;92102.41;;;27.84;39.54
12195;BME280;27023;42.680;23.132;2022-08-18T09:36:49;92107.06;;;27.57;42.54
12195;BME280;27023;42.680;23.132;2022-08-18T09:39:26;92103.00;;;27.52;42.31
12195;BME280;27023;42.680;23.132;2022-08-18T09:42:16;92105.25;;;27.90;40.54
12195;BME280;27023;42.680;23.132;2022-08-18T09:48:00;92098.66;;;27.64;38.20
12195;BME280;27023;42.680;23.132;2022-08-18T09:54:09;92086.03;;;27.70;39.98
12195;BME280;27023;42.680;23.132;2022-08-18T10:00:16;92085.06;;;28.61;36.34
12195;BME280;27023;42.680;23.132;2022-08-18T10:03:12;92081.38;;;29.06;36.59
12195;BME280;27023;42.680;23.132;2022-08-18T10:06:02;92076.75;;;29.98;36.30
12195;BME280;27023;42.680;23.132;2022-08-18T10:11:38;92074.44;;;29.53;34.74
12195;BME280;27023;42.680;23.132;2022-08-18T10:17:33;92076.28;;;28.66;38.29
12195;BME280;27023;42.680;23.132;2022-08-18T10:20:25;92066.94;;;28.34;38.80
12195;BME280;27023;42.680;23.132;2022-08-18T10:22:56;92071.78;;;28.96;38.39
12195;BME280;27023;42.680;23.132;2022-08-18T10:32:23;92069.81;;;31.26;34.32
12195;BME280;27023;42.680;23.132;2022-08-18T10:35:02;92064.88;;;31.10;33.84
12195;BME280;27023;42.680;23.132;2022-08-18T10:37:35;92061.59;;;31.06;34.83
12195;BME280;27023;42.680;23.132;2022-08-18T10:40:12;92060.00;;;32.01;32.28
12195;BME280;27023;42.680;23.132;2022-08-18T10:42:43;92050.53;;;32.54;32.37
12195;BME280;27023;42.680;23.132;2022-08-18T10:45:15;92052.88;;;33.09;32.51
12195;BME280;27023;42.680;23.132;2022-08-18T10:47:57;92049.03;;;33.33;31.11
12195;BME280;27023;42.680;23.132;2022-08-18T10:53:11;92051.72;;;38.21;24.62
12195;BME280;27023;42.680;23.132;2022-08-18T10:55:49;92045.06;;;40.33;22.15
12195;BME280;27023;42.680;23.132;2022-08-18T10:58:45;92046.91;;;41.71;21.21
12195;BME280;27023;42.680;23.132;2022-08-18T11:01:48;92033.38;;;43.16;20.35
12195;BME280;27023;42.680;23.132;2022-08-18T11:04:26;92020.00;;;44.15;18.61
12195;BME280;27023;42.680;23.132;2022-08-18T11:07:04;92025.63;;;46.90;17.21
12195;BME280;27023;42.680;23.132;2022-08-18T11:09:32;92027.13;;;47.66;16.79
12195;BME280;27023;42.680;23.132;2022-08-18T11:12:00;92015.34;;;42.10;19.46
12195;BME280;27023;42.680;23.132;2022-08-18T11:14:42;92020.09;;;40.18;20.80
12195;BME280;27023;42.680;23.132;2022-08-18T11:17:18;92018.47;;;37.62;24.47
12195;BME280;27023;42.680;23.132;2022-08-18T11:20:06;92028.63;;;36.10;26.46
12195;BME280;27023;42.680;23.132;2022-08-18T11:22:52;92027.63;;;34.02;28.21
12195;BME280;27023;42.680;23.132;2022-08-18T11:25:24;92030.25;;;33.46;29.31
12195;BME280;27023;42.680;23.132;2022-08-18T11:27:51;92025.63;;;32.72;30.76
12195;BME280;27023;42.680;23.132;2022-08-18T11:30:19;92027.16;;;31.90;30.98
12195;BME280;27023;42.680;23.132;2022-08-18T11:32:48;92021.44;;;31.62;31.81
12195;BME280;27023;42.680;23.132;2022-08-18T11:35:19;92025.94;;;30.34;35.46
12195;BME280;27023;42.680;23.132;2022-08-18T11:37:48;92032.91;;;30.06;34.31
12195;BME280;27023;42.680;23.132;2022-08-18T11:40:39;92032.69;;;30.39;34.38
12195;BME280;27023;42.680;23.132;2022-08-18T11:43:10;92036.28;;;30.15;33.88
12195;BME280;27023;42.680;23.132;2022-08-18T11:45:57;92028.03;;;30.10;34.30
12195;BME280;27023;42.680;23.132;2022-08-18T11:48:35;92011.94;;;30.06;34.65
12195;BME280;27023;42.680;23.132;2022-08-18T11:51:10;92004.81;;;30.44;35.13
12195;BME280;27023;42.680;23.132;2022-08-18T11:53:51;92008.94;;;30.69;35.78
12195;BME280;27023;42.680;23.132;2022-08-18T11:56:23;91997.50;;;30.85;34.57
12195;BME280;27023;42.680;23.132;2022-08-18T11:58:53;92004.50;;;30.71;34.59
12195;BME280;27023;42.680;23.132;2022-08-18T12:01:29;92005.53;;;30.74;34.67
12195;BME280;27023;42.680;23.132;2022-08-18T12:03:58;91998.44;;;30.61;33.94
12195;BME280;27023;42.680;23.132;2022-08-18T12:06:34;91991.84;;;30.18;35.33
12195;BME280;27023;42.680;23.132;2022-08-18T12:09:03;91989.97;;;30.24;35.26
12195;BME280;27023;42.680;23.132;2022-08-18T12:11:33;91995.38;;;30.39;35.14
12195;BME280;27023;42.680;23.132;2022-08-18T12:14:07;91989.72;;;30.57;34.69
12195;BME280;27023;42.680;23.132;2022-08-18T12:16:37;91995.34;;;30.54;36.50
12195;BME280;27023;42.680;23.132;2022-08-18T12:19:06;92000.97;;;30.65;35.16
12195;BME280;27023;42.680;23.132;2022-08-18T12:21:38;91989.81;;;30.83;33.78
12195;BME280;27023;42.680;23.132;2022-08-18T12:24:09;91989.56;;;31.02;34.27
12195;BME280;27023;42.680;23.132;2022-08-18T12:26:38;91982.47;;;31.10;33.52
12195;BME280;27023;42.680;23.132;2022-08-18T12:29:05;91998.09;;;31.29;33.61
12195;BME280;27023;42.680;23.132;2022-08-18T12:31:32;91981.31;;;31.37;32.97
12195;BME280;27023;42.680;23.132;2022-08-18T12:33:58;91983.72;;;30.53;33.06
12195;BME280;27023;42.680;23.132;2022-08-18T12:36:26;91984.59;;;30.80;31.98
12195;BME280;27023;42.680;23.132;2022-08-18T12:38:55;91982.41;;;31.04;32.90
12195;BME280;27023;42.680;23.132;2022-08-18T12:41:23;91983.31;;;31.16;32.67
12195;BME280;27023;42.680;23.132;2022-08-18T12:43:49;91992.38;;;31.27;34.95
12195;BME280;27023;42.680;23.132;2022-08-18T12:46:17;91993.38;;;31.30;31.57
12195;BME280;27023;42.680;23.132;2022-08-18T12:48:44;91988.91;;;31.27;32.04
12195;BME280;27023;42.680;23.132;2022-08-18T12:51:11;91981.50;;;31.13;32.09
12195;BME280;27023;42.680;23.132;2022-08-18T12:53:38;91976.09;;;31.33;33.02
12195;BME280;27023;42.680;23.132;2022-08-18T12:56:18;91976.09;;;31.59;31.62
12195;BME280;27023;42.680;23.132;2022-08-18T12:58:46;91976.31;;;31.29;32.22
12195;BME280;27023;42.680;23.132;2022-08-18T13:01:14;91978.72;;;31.07;31.23
12195;BME280;27023;42.680;23.132;2022-08-18T13:03:40;91972.22;;;31.19;31.47
12195;BME280;27023;42.680;23.132;2022-08-18T13:06:08;91964.03;;;31.19;32.01
12195;BME280;27023;42.680;23.132;2022-08-18T13:08:36;91978.88;;;31.39;30.99
12195;BME280;27023;42.680;23.132;2022-08-18T13:11:02;91961.72;;;30.92;31.14
12195;BME280;27023;42.680;23.132;2022-08-18T13:13:36;91961.56;;;31.42;31.95
12195;BME280;27023;42.680;23.132;2022-08-18T13:16:04;91964.88;;;31.77;31.00
12195;BME280;27023;42.680;23.132;2022-08-18T13:18:31;91959.75;;;30.92;32.45
12195;BME280;27023;42.680;23.132;2022-08-18T13:20:58;91956.91;;;30.81;32.76
12195;BME280;27023;42.680;23.132;2022-08-18T13:23:25;91952.63;;;31.15;32.14
12195;BME280;27023;42.680;23.132;2022-08-18T13:25:52;91955.06;;;31.59;33.79
12195;BME280;27023;42.680;23.132;2022-08-18T13:28:19;91951.84;;;31.35;32.35
12195;BME280;27023;42.680;23.132;2022-08-18T13:30:47;91948.97;;;31.70;32.87
12195;BME280;27023;42.680;23.132;2022-08-18T13:33:15;91951.63;;;31.90;31.26
12195;BME280;27023;42.680;23.132;2022-08-18T13:35:42;91948.06;;;32.10;30.60
12195;BME280;27023;42.680;23.132;2022-08-18T13:38:10;91946.81;;;32.06;30.91
12195;BME280;27023;42.680;23.132;2022-08-18T13:40:44;91947.13;;;31.87;31.01
12195;BME280;27023;42.680;23.132;2022-08-18T13:43:30;91941.25;;;31.95;30.99
12195;BME280;27023;42.680;23.132;2022-08-18T13:46:38;91943.72;;;31.92;32.43
12195;BME280;27023;42.680;23.132;2022-08-18T13:49:13;91935.00;;;32.20;31.82
12195;BME280;27023;42.680;23.132;2022-08-18T13:51:40;91945.03;;;32.34;32.08
12195;BME280;27023;42.680;23.132;2022-08-18T13:54:08;91946.81;;;32.06;33.08
12195;BME280;27023;42.680;23.132;2022-08-18T13:56:36;91930.03;;;32.18;31.05
12195;BME280;27023;42.680;23.132;2022-08-18T13:59:05;91928.13;;;31.67;32.35